sensor_id;sensor_type;location;lat;lon;timestamp;P1;durP1;ratioP1;P2;durP2;ratioP2
68523;SDS011;55524;51.380;13.372;2022-07-06T00:02:06;7.80;;;2.58;;
68523;SDS011;55524;51.380;13.372;2022-07-06T00:04:32;4.50;;;2.72;;
68523;SDS011;55524;51.380;13.372;2022-07-06T00:06:58;6.53;;;2.80;;
68523;SDS011;55524;51.380;13.372;2022-07-06T00:09:25;5.53;;;2.90;;
68523;SDS011;55524;51.380;13.372;2022-07-06T00:11:51;5.03;;;2.78;;
68523;SDS011;55524;51.380;13.372;2022-07-06T00:14:17;5.88;;;2.97;;
68523;SDS011;55524;51.380;13.372;2022-07-06T00:16:43;3.30;;;2.58;;
68523;SDS011;55524;51.380;13.372;2022-07-06T00:19:10;6.38;;;2.40;;
68523;SDS011;55524;51.380;13.372;2022-07-06T00:21:36;3.17;;;2.78;;
68523;SDS011;55524;51.380;13.372;2022-07-06T00:24:02;4.60;;;2.47;;
68523;SDS011;55524;51.380;13.372;2022-07-06T00:26:29;3.58;;;2.90;;
68523;SDS011;55524;51.380;13.372;2022-07-06T00:28:55;5.80;;;3.00;;
68523;SDS011;55524;51.380;13.372;2022-07-06T00:31:21;3.88;;;3.08;;
68523;SDS011;55524;51.380;13.372;2022-07-06T00:33:48;5.03;;;3.40;;
68523;SDS011;55524;51.380;13.372;2022-07-06T00:36:14;6.90;;;3.50;;
68523;SDS011;55524;51.380;13.372;2022-07-06T00:38:40;6.57;;;3.55;;
68523;SDS011;55524;51.380;13.372;2022-07-06T00:41:07;3.63;;;2.90;;
68523;SDS011;55524;51.380;13.372;2022-07-06T00:46:33;4.28;;;3.78;;
68523;SDS011;55524;51.380;13.372;2022-07-06T00:49:00;5.80;;;3.20;;
68523;SDS011;55524;51.380;13.372;2022-07-06T00:51:30;7.18;;;3.08;;
68523;SDS011;55524;51.380;13.372;2022-07-06T00:54:01;4.45;;;2.95;;
68523;SDS011;55524;51.380;13.372;2022-07-06T00:56:30;6.32;;;3.88;;
68523;SDS011;55524;51.380;13.372;2022-07-06T00:58:57;4.72;;;3.70;;
68523;SDS011;55524;51.380;13.372;2022-07-06T01:01:27;5.40;;;3.65;;
68523;SDS011;55524;51.380;13.372;2022-07-06T01:03:53;3.72;;;3.20;;
68523;SDS011;55524;51.380;13.372;2022-07-06T01:06:19;6.35;;;3.55;;
68523;SDS011;55524;51.380;13.372;2022-07-06T01:08:46;4.13;;;3.75;;
68523;SDS011;55524;51.380;13.372;2022-07-06T01:11:12;5.57;;;3.30;;
68523;SDS011;55524;51.380;13.372;2022-07-06T01:13:39;5.00;;;3.22;;
68523;SDS011;55524;51.380;13.372;2022-07-06T01:16:06;3.03;;;2.80;;
68523;SDS011;55524;51.380;13.372;2022-07-06T01:18:32;4.13;;;3.03;;
68523;SDS011;55524;51.380;13.372;2022-07-06T01:21:08;5.07;;;3.17;;
68523;SDS011;55524;51.380;13.372;2022-07-06T01:23:42;3.63;;;3.22;;
68523;SDS011;55524;51.380;13.372;2022-07-06T01:26:10;4.30;;;3.50;;
68523;SDS011;55524;51.380;13.372;2022-07-06T01:28:41;5.63;;;3.50;;
68523;SDS011;55524;51.380;13.372;2022-07-06T01:31:18;3.72;;;3.42;;
68523;SDS011;55524;51.380;13.372;2022-07-06T01:33:45;4.28;;;3.03;;
68523;SDS011;55524;51.380;13.372;2022-07-06T01:36:11;3.67;;;3.38;;
68523;SDS011;55524;51.380;13.372;2022-07-06T01:38:48;3.80;;;3.40;;
68523;SDS011;55524;51.380;13.372;2022-07-06T01:41:16;6.13;;;3.53;;
68523;SDS011;55524;51.380;13.372;2022-07-06T01:43:43;5.50;;;3.53;;
68523;SDS011;55524;51.380;13.372;2022-07-06T01:46:10;5.47;;;3.60;;
68523;SDS011;55524;51.380;13.372;2022-07-06T01:48:37;6.28;;;3.50;;
68523;SDS011;55524;51.380;13.372;2022-07-06T01:51:04;4.93;;;3.40;;
68523;SDS011;55524;51.380;13.372;2022-07-06T01:53:31;4.95;;;3.53;;
68523;SDS011;55524;51.380;13.372;2022-07-06T01:55:57;5.57;;;3.88;;
68523;SDS011;55524;51.380;13.372;2022-07-06T01:58:23;5.97;;;3.60;;
68523;SDS011;55524;51.380;13.372;2022-07-06T02:00:49;6.20;;;3.45;;
68523;SDS011;55524;51.380;13.372;2022-07-06T02:03:16;6.68;;;4.07;;
68523;SDS011;55524;51.380;13.372;2022-07-06T02:05:42;4.38;;;3.85;;
68523;SDS011;55524;51.380;13.372;2022-07-06T02:08:08;4.03;;;3.70;;
68523;SDS011;55524;51.380;13.372;2022-07-06T02:10:34;3.97;;;3.67;;
68523;SDS011;55524;51.380;13.372;2022-07-06T02:13:01;7.57;;;3.60;;
68523;SDS011;55524;51.380;13.372;2022-07-06T02:15:27;4.60;;;3.50;;
68523;SDS011;55524;51.380;13.372;2022-07-06T02:17:53;4.05;;;3.75;;
68523;SDS011;55524;51.380;13.372;2022-07-06T02:20:19;6.68;;;4.40;;
68523;SDS011;55524;51.380;13.372;2022-07-06T02:22:46;5.05;;;4.00;;
68523;SDS011;55524;51.380;13.372;2022-07-06T02:25:12;6.63;;;4.13;;
68523;SDS011;55524;51.380;13.372;2022-07-06T02:27:38;4.40;;;4.00;;
68523;SDS011;55524;51.380;13.372;2022-07-06T02:30:05;6.10;;;4.53;;
68523;SDS011;55524;51.380;13.372;2022-07-06T02:32:31;6.10;;;3.80;;
68523;SDS011;55524;51.380;13.372;2022-07-06T02:34:58;8.15;;;4.00;;
68523;SDS011;55524;51.380;13.372;2022-07-06T02:37:24;7.03;;;3.97;;
68523;SDS011;55524;51.380;13.372;2022-07-06T02:39:50;8.73;;;3.97;;
68523;SDS011;55524;51.380;13.372;2022-07-06T02:42:17;5.53;;;3.90;;
68523;SDS011;55524;51.380;13.372;2022-07-06T02:44:43;4.28;;;3.88;;
68523;SDS011;55524;51.380;13.372;2022-07-06T02:47:09;4.75;;;4.35;;
68523;SDS011;55524;51.380;13.372;2022-07-06T02:49:35;5.43;;;4.07;;
68523;SDS011;55524;51.380;13.372;2022-07-06T02:52:01;5.55;;;4.57;;
68523;SDS011;55524;51.380;13.372;2022-07-06T02:54:28;5.68;;;4.03;;
68523;SDS011;55524;51.380;13.372;2022-07-06T02:56:54;4.43;;;4.00;;
68523;SDS011;55524;51.380;13.372;2022-07-06T02:59:20;4.18;;;3.70;;
68523;SDS011;55524;51.380;13.372;2022-07-06T03:01:47;4.40;;;4.07;;
68523;SDS011;55524;51.380;13.372;2022-07-06T03:04:13;5.00;;;4.05;;
68523;SDS011;55524;51.380;13.372;2022-07-06T03:06:39;6.60;;;4.00;;
68523;SDS011;55524;51.380;13.372;2022-07-06T03:09:05;5.40;;;4.00;;
68523;SDS011;55524;51.380;13.372;2022-07-06T03:11:31;4.57;;;4.18;;
68523;SDS011;55524;51.380;13.372;2022-07-06T03:14:01;9.15;;;4.18;;
68523;SDS011;55524;51.380;13.372;2022-07-06T03:16:28;7.57;;;4.35;;
68523;SDS011;55524;51.380;13.372;2022-07-06T03:18:55;6.30;;;4.25;;
68523;SDS011;55524;51.380;13.372;2022-07-06T03:21:22;4.55;;;4.15;;
68523;SDS011;55524;51.380;13.372;2022-07-06T03:23:48;5.07;;;4.57;;
68523;SDS011;55524;51.380;13.372;2022-07-06T03:26:14;8.98;;;3.90;;
68523;SDS011;55524;51.380;13.372;2022-07-06T03:28:41;4.68;;;4.38;;
68523;SDS011;55524;51.380;13.372;2022-07-06T03:31:07;6.25;;;3.97;;
68523;SDS011;55524;51.380;13.372;2022-07-06T03:33:33;6.20;;;4.05;;
68523;SDS011;55524;51.380;13.372;2022-07-06T03:36:00;5.72;;;4.00;;
68523;SDS011;55524;51.380;13.372;2022-07-06T03:38:26;5.47;;;4.65;;
68523;SDS011;55524;51.380;13.372;2022-07-06T03:40:52;4.32;;;3.92;;
68523;SDS011;55524;51.380;13.372;2022-07-06T03:43:19;7.70;;;4.43;;
68523;SDS011;55524;51.380;13.372;2022-07-06T03:45:45;4.45;;;4.00;;
68523;SDS011;55524;51.380;13.372;2022-07-06T03:48:11;5.85;;;4.32;;
68523;SDS011;55524;51.380;13.372;2022-07-06T03:50:37;5.07;;;4.40;;
68523;SDS011;55524;51.380;13.372;2022-07-06T03:53:03;6.15;;;3.95;;
68523;SDS011;55524;51.380;13.372;2022-07-06T03:55:30;7.97;;;3.42;;
68523;SDS011;55524;51.380;13.372;2022-07-06T03:57:56;4.80;;;3.88;;
68523;SDS011;55524;51.380;13.372;2022-07-06T04:00:22;7.47;;;4.10;;
68523;SDS011;55524;51.380;13.372;2022-07-06T04:02:49;3.55;;;3.25;;
68523;SDS011;55524;51.380;13.372;2022-07-06T04:05:15;6.55;;;3.38;;
68523;SDS011;55524;51.380;13.372;2022-07-06T04:07:46;3.60;;;3.40;;
68523;SDS011;55524;51.380;13.372;2022-07-06T04:10:13;3.00;;;2.60;;
68523;SDS011;55524;51.380;13.372;2022-07-06T04:12:43;4.38;;;2.90;;
68523;SDS011;55524;51.380;13.372;2022-07-06T04:15:10;5.50;;;3.05;;
68523;SDS011;55524;51.380;13.372;2022-07-06T04:17:37;2.90;;;2.60;;
68523;SDS011;55524;51.380;13.372;2022-07-06T04:20:21;4.20;;;2.90;;
68523;SDS011;55524;51.380;13.372;2022-07-06T04:22:49;4.10;;;2.50;;
68523;SDS011;55524;51.380;13.372;2022-07-06T04:25:16;3.42;;;2.90;;
68523;SDS011;55524;51.380;13.372;2022-07-06T04:27:43;3.50;;;2.60;;
68523;SDS011;55524;51.380;13.372;2022-07-06T04:30:10;6.38;;;3.00;;
68523;SDS011;55524;51.380;13.372;2022-07-06T04:32:37;2.50;;;2.17;;
68523;SDS011;55524;51.380;13.372;2022-07-06T04:35:04;11.85;;;3.83;;
68523;SDS011;55524;51.380;13.372;2022-07-06T04:37:31;12.27;;;2.70;;
68523;SDS011;55524;51.380;13.372;2022-07-06T04:39:57;2.22;;;2.03;;
68523;SDS011;55524;51.380;13.372;2022-07-06T04:44:49;10.30;;;2.15;;
68523;SDS011;55524;51.380;13.372;2022-07-06T04:47:16;4.43;;;2.10;;
68523;SDS011;55524;51.380;13.372;2022-07-06T04:54:55;2.45;;;1.95;;
68523;SDS011;55524;51.380;13.372;2022-07-06T04:57:21;3.20;;;1.70;;
68523;SDS011;55524;51.380;13.372;2022-07-06T04:59:50;31.73;;;5.18;;
68523;SDS011;55524;51.380;13.372;2022-07-06T05:02:17;3.80;;;1.65;;
68523;SDS011;55524;51.380;13.372;2022-07-06T05:04:43;48.50;;;4.78;;
68523;SDS011;55524;51.380;13.372;2022-07-06T05:07:10;9.98;;;1.88;;
68523;SDS011;55524;51.380;13.372;2022-07-06T05:09:36;2.17;;;1.60;;
68523;SDS011;55524;51.380;13.372;2022-07-06T05:12:02;3.55;;;1.67;;
68523;SDS011;55524;51.380;13.372;2022-07-06T05:14:28;1.70;;;1.45;;
68523;SDS011;55524;51.380;13.372;2022-07-06T05:16:55;4.57;;;1.45;;
68523;SDS011;55524;51.380;13.372;2022-07-06T05:19:21;3.67;;;1.77;;
68523;SDS011;55524;51.380;13.372;2022-07-06T05:21:47;3.03;;;1.48;;
68523;SDS011;55524;51.380;13.372;2022-07-06T05:24:13;2.05;;;1.35;;
68523;SDS011;55524;51.380;13.372;2022-07-06T05:26:40;3.72;;;1.42;;
68523;SDS011;55524;51.380;13.372;2022-07-06T05:29:07;3.47;;;1.20;;
68523;SDS011;55524;51.380;13.372;2022-07-06T05:31:33;4.90;;;1.50;;
68523;SDS011;55524;51.380;13.372;2022-07-06T05:33:59;5.13;;;1.40;;
68523;SDS011;55524;51.380;13.372;2022-07-06T05:36:26;15.32;;;1.83;;
68523;SDS011;55524;51.380;13.372;2022-07-06T05:38:52;6.75;;;1.50;;
68523;SDS011;55524;51.380;13.372;2022-07-06T05:41:18;3.65;;;1.30;;
68523;SDS011;55524;51.380;13.372;2022-07-06T05:43:44;1.02;;;0.93;;
68523;SDS011;55524;51.380;13.372;2022-07-06T05:46:11;1.10;;;1.00;;
68523;SDS011;55524;51.380;13.372;2022-07-06T05:48:37;2.72;;;1.20;;
68523;SDS011;55524;51.380;13.372;2022-07-06T05:51:21;3.00;;;1.30;;
68523;SDS011;55524;51.380;13.372;2022-07-06T05:53:48;9.10;;;2.00;;
68523;SDS011;55524;51.380;13.372;2022-07-06T05:56:14;4.68;;;1.13;;
68523;SDS011;55524;51.380;13.372;2022-07-06T05:58:40;5.53;;;1.05;;
68523;SDS011;55524;51.380;13.372;2022-07-06T06:01:07;1.60;;;0.93;;
68523;SDS011;55524;51.380;13.372;2022-07-06T06:03:33;4.07;;;1.10;;
68523;SDS011;55524;51.380;13.372;2022-07-06T06:06:00;1.27;;;1.10;;
68523;SDS011;55524;51.380;13.372;2022-07-06T06:08:26;1.83;;;1.10;;
68523;SDS011;55524;51.380;13.372;2022-07-06T06:10:52;3.90;;;1.10;;
68523;SDS011;55524;51.380;13.372;2022-07-06T06:13:19;1.60;;;1.10;;
68523;SDS011;55524;51.380;13.372;2022-07-06T06:15:45;3.70;;;1.20;;
68523;SDS011;55524;51.380;13.372;2022-07-06T06:18:11;2.22;;;1.00;;
68523;SDS011;55524;51.380;13.372;2022-07-06T06:20:38;4.78;;;1.15;;
68523;SDS011;55524;51.380;13.372;2022-07-06T06:23:04;5.53;;;1.15;;
68523;SDS011;55524;51.380;13.372;2022-07-06T06:25:32;4.00;;;1.00;;
68523;SDS011;55524;51.380;13.372;2022-07-06T06:28:00;3.05;;;0.90;;
68523;SDS011;55524;51.380;13.372;2022-07-06T06:30:31;4.20;;;0.98;;
68523;SDS011;55524;51.380;13.372;2022-07-06T06:33:08;2.63;;;0.88;;
68523;SDS011;55524;51.380;13.372;2022-07-06T06:35:43;1.58;;;0.82;;
68523;SDS011;55524;51.380;13.372;2022-07-06T06:38:11;2.70;;;1.00;;
68523;SDS011;55524;51.380;13.372;2022-07-06T06:40:37;1.02;;;0.70;;
68523;SDS011;55524;51.380;13.372;2022-07-06T06:43:04;2.85;;;1.00;;
68523;SDS011;55524;51.380;13.372;2022-07-06T06:45:31;1.83;;;0.93;;
68523;SDS011;55524;51.380;13.372;2022-07-06T06:47:58;1.98;;;1.00;;
68523;SDS011;55524;51.380;13.372;2022-07-06T06:50:24;1.90;;;0.82;;
68523;SDS011;55524;51.380;13.372;2022-07-06T06:52:51;5.28;;;0.95;;
68523;SDS011;55524;51.380;13.372;2022-07-06T06:55:17;2.42;;;0.98;;
68523;SDS011;55524;51.380;13.372;2022-07-06T06:57:44;1.80;;;1.10;;
68523;SDS011;55524;51.380;13.372;2022-07-06T07:00:11;3.00;;;1.20;;
68523;SDS011;55524;51.380;13.372;2022-07-06T07:02:38;4.05;;;1.10;;
68523;SDS011;55524;51.380;13.372;2022-07-06T07:05:05;2.75;;;1.10;;
68523;SDS011;55524;51.380;13.372;2022-07-06T07:07:32;4.40;;;1.05;;
68523;SDS011;55524;51.380;13.372;2022-07-06T07:09:58;5.78;;;1.00;;
68523;SDS011;55524;51.380;13.372;2022-07-06T07:12:25;11.95;;;2.08;;
68523;SDS011;55524;51.380;13.372;2022-07-06T07:14:51;14.02;;;1.70;;
68523;SDS011;55524;51.380;13.372;2022-07-06T07:17:17;1.33;;;0.90;;
68523;SDS011;55524;51.380;13.372;2022-07-06T07:19:44;5.18;;;1.00;;
68523;SDS011;55524;51.380;13.372;2022-07-06T07:22:10;4.07;;;1.10;;
68523;SDS011;55524;51.380;13.372;2022-07-06T07:24:36;3.53;;;1.25;;
68523;SDS011;55524;51.380;13.372;2022-07-06T07:27:03;3.10;;;1.10;;
68523;SDS011;55524;51.380;13.372;2022-07-06T07:29:30;3.85;;;1.30;;
68523;SDS011;55524;51.380;13.372;2022-07-06T07:31:56;2.35;;;1.08;;
68523;SDS011;55524;51.380;13.372;2022-07-06T07:34:23;2.83;;;1.00;;
68523;SDS011;55524;51.380;13.372;2022-07-06T07:36:49;4.30;;;0.90;;
68523;SDS011;55524;51.380;13.372;2022-07-06T07:39:15;2.58;;;1.02;;
68523;SDS011;55524;51.380;13.372;2022-07-06T07:41:41;4.40;;;0.95;;
68523;SDS011;55524;51.380;13.372;2022-07-06T07:44:07;1.00;;;0.93;;
68523;SDS011;55524;51.380;13.372;2022-07-06T07:46:34;2.20;;;1.00;;
68523;SDS011;55524;51.380;13.372;2022-07-06T07:49:00;2.45;;;0.93;;
68523;SDS011;55524;51.380;13.372;2022-07-06T07:51:26;2.63;;;1.00;;
68523;SDS011;55524;51.380;13.372;2022-07-06T07:53:53;9.60;;;1.30;;
68523;SDS011;55524;51.380;13.372;2022-07-06T07:56:19;2.55;;;0.95;;
68523;SDS011;55524;51.380;13.372;2022-07-06T07:58:45;1.60;;;0.80;;
68523;SDS011;55524;51.380;13.372;2022-07-06T08:01:13;2.95;;;0.90;;
68523;SDS011;55524;51.380;13.372;2022-07-06T08:03:39;5.50;;;1.15;;
68523;SDS011;55524;51.380;13.372;2022-07-06T08:06:06;5.32;;;0.85;;
68523;SDS011;55524;51.380;13.372;2022-07-06T08:08:32;2.60;;;0.90;;
68523;SDS011;55524;51.380;13.372;2022-07-06T08:10:58;2.75;;;0.90;;
68523;SDS011;55524;51.380;13.372;2022-07-06T08:13:24;1.83;;;0.88;;
68523;SDS011;55524;51.380;13.372;2022-07-06T08:15:51;4.10;;;1.17;;
68523;SDS011;55524;51.380;13.372;2022-07-06T08:18:17;1.02;;;0.77;;
68523;SDS011;55524;51.380;13.372;2022-07-06T08:20:43;2.17;;;0.90;;
68523;SDS011;55524;51.380;13.372;2022-07-06T08:23:09;2.45;;;0.90;;
68523;SDS011;55524;51.380;13.372;2022-07-06T08:25:35;7.68;;;1.15;;
68523;SDS011;55524;51.380;13.372;2022-07-06T08:28:02;1.80;;;0.88;;
68523;SDS011;55524;51.380;13.372;2022-07-06T08:30:28;2.13;;;0.90;;
68523;SDS011;55524;51.380;13.372;2022-07-06T08:32:59;4.60;;;0.82;;
68523;SDS011;55524;51.380;13.372;2022-07-06T08:35:26;1.85;;;0.70;;
68523;SDS011;55524;51.380;13.372;2022-07-06T08:37:52;3.53;;;0.90;;
68523;SDS011;55524;51.380;13.372;2022-07-06T08:40:19;2.20;;;0.82;;
68523;SDS011;55524;51.380;13.372;2022-07-06T08:42:48;1.13;;;0.77;;
68523;SDS011;55524;51.380;13.372;2022-07-06T08:45:22;5.30;;;1.00;;
68523;SDS011;55524;51.380;13.372;2022-07-06T08:47:54;3.70;;;0.90;;
68523;SDS011;55524;51.380;13.372;2022-07-06T08:50:30;1.27;;;0.90;;
68523;SDS011;55524;51.380;13.372;2022-07-06T08:53:02;4.10;;;0.80;;
68523;SDS011;55524;51.380;13.372;2022-07-06T08:55:32;3.45;;;0.90;;
68523;SDS011;55524;51.380;13.372;2022-07-06T08:57:59;3.25;;;1.10;;
68523;SDS011;55524;51.380;13.372;2022-07-06T09:00:32;1.90;;;0.95;;
68523;SDS011;55524;51.380;13.372;2022-07-06T09:03:00;1.02;;;0.80;;
68523;SDS011;55524;51.380;13.372;2022-07-06T09:05:28;1.45;;;1.00;;
68523;SDS011;55524;51.380;13.372;2022-07-06T09:07:57;4.18;;;1.30;;
68523;SDS011;55524;51.380;13.372;2022-07-06T09:10:24;3.45;;;0.98;;
68523;SDS011;55524;51.380;13.372;2022-07-06T09:12:51;2.53;;;0.90;;
68523;SDS011;55524;51.380;13.372;2022-07-06T09:15:28;2.10;;;1.05;;
68523;SDS011;55524;51.380;13.372;2022-07-06T09:17:55;2.35;;;1.00;;
68523;SDS011;55524;51.380;13.372;2022-07-06T09:20:22;5.57;;;1.00;;
68523;SDS011;55524;51.380;13.372;2022-07-06T09:22:49;4.43;;;0.90;;
68523;SDS011;55524;51.380;13.372;2022-07-06T09:25:16;5.38;;;0.95;;
68523;SDS011;55524;51.380;13.372;2022-07-06T09:27:43;2.20;;;0.85;;
68523;SDS011;55524;51.380;13.372;2022-07-06T09:30:15;1.20;;;0.80;;
68523;SDS011;55524;51.380;13.372;2022-07-06T09:32:43;2.85;;;0.90;;
68523;SDS011;55524;51.380;13.372;2022-07-06T09:35:21;2.78;;;0.90;;
68523;SDS011;55524;51.380;13.372;2022-07-06T09:38:08;1.63;;;0.90;;
68523;SDS011;55524;51.380;13.372;2022-07-06T09:40:37;3.72;;;1.00;;
68523;SDS011;55524;51.380;13.372;2022-07-06T09:43:18;1.50;;;0.70;;
68523;SDS011;55524;51.380;13.372;2022-07-06T09:45:47;2.50;;;0.85;;
68523;SDS011;55524;51.380;13.372;2022-07-06T09:48:21;2.13;;;0.70;;
68523;SDS011;55524;51.380;13.372;2022-07-06T09:53:31;2.80;;;1.23;;
68523;SDS011;55524;51.380;13.372;2022-07-06T09:56:01;1.83;;;0.80;;
68523;SDS011;55524;51.380;13.372;2022-07-06T09:58:27;2.80;;;0.77;;
68523;SDS011;55524;51.380;13.372;2022-07-06T10:00:54;2.38;;;0.80;;
68523;SDS011;55524;51.380;13.372;2022-07-06T10:03:20;3.22;;;1.10;;
68523;SDS011;55524;51.380;13.372;2022-07-06T10:05:49;2.80;;;0.75;;
68523;SDS011;55524;51.380;13.372;2022-07-06T10:08:16;4.68;;;0.88;;
68523;SDS011;55524;51.380;13.372;2022-07-06T10:10:43;3.92;;;0.90;;
68523;SDS011;55524;51.380;13.372;2022-07-06T10:13:10;1.50;;;0.85;;
68523;SDS011;55524;51.380;13.372;2022-07-06T10:15:37;3.97;;;0.80;;
68523;SDS011;55524;51.380;13.372;2022-07-06T10:18:05;3.42;;;0.80;;
68523;SDS011;55524;51.380;13.372;2022-07-06T10:20:34;2.88;;;0.90;;
68523;SDS011;55524;51.380;13.372;2022-07-06T10:23:06;5.70;;;0.90;;
68523;SDS011;55524;51.380;13.372;2022-07-06T10:25:33;2.08;;;0.82;;
68523;SDS011;55524;51.380;13.372;2022-07-06T10:28:00;6.38;;;1.58;;
68523;SDS011;55524;51.380;13.372;2022-07-06T10:30:28;3.53;;;0.90;;
68523;SDS011;55524;51.380;13.372;2022-07-06T10:32:56;1.90;;;0.70;;
68523;SDS011;55524;51.380;13.372;2022-07-06T10:35:24;6.07;;;1.13;;
68523;SDS011;55524;51.380;13.372;2022-07-06T10:38:04;3.38;;;0.80;;
68523;SDS011;55524;51.380;13.372;2022-07-06T10:40:32;3.08;;;0.90;;
68523;SDS011;55524;51.380;13.372;2022-07-06T10:43:18;6.07;;;1.15;;
68523;SDS011;55524;51.380;13.372;2022-07-06T10:55:45;0.77;;;0.70;;
68523;SDS011;55524;51.380;13.372;2022-07-06T10:58:14;2.58;;;1.00;;
68523;SDS011;55524;51.380;13.372;2022-07-06T11:06:17;1.40;;;0.70;;
68523;SDS011;55524;51.380;13.372;2022-07-06T11:16:37;2.97;;;0.82;;
68523;SDS011;55524;51.380;13.372;2022-07-06T11:19:16;4.57;;;0.80;;
68523;SDS011;55524;51.380;13.372;2022-07-06T11:21:45;2.25;;;0.90;;
68523;SDS011;55524;51.380;13.372;2022-07-06T11:24:17;2.45;;;0.70;;
68523;SDS011;55524;51.380;13.372;2022-07-06T11:26:46;1.75;;;0.80;;
68523;SDS011;55524;51.380;13.372;2022-07-06T11:29:14;2.63;;;0.95;;
68523;SDS011;55524;51.380;13.372;2022-07-06T11:31:43;7.93;;;0.82;;
68523;SDS011;55524;51.380;13.372;2022-07-06T11:34:12;1.83;;;0.70;;
68523;SDS011;55524;51.380;13.372;2022-07-06T11:39:09;1.35;;;1.02;;
68523;SDS011;55524;51.380;13.372;2022-07-06T11:41:35;5.47;;;0.80;;
68523;SDS011;55524;51.380;13.372;2022-07-06T11:44:02;7.20;;;1.15;;
68523;SDS011;55524;51.380;13.372;2022-07-06T11:46:32;1.95;;;0.80;;
68523;SDS011;55524;51.380;13.372;2022-07-06T11:49:35;1.65;;;0.70;;
68523;SDS011;55524;51.380;13.372;2022-07-06T11:52:22;2.53;;;0.90;;
68523;SDS011;55524;51.380;13.372;2022-07-06T11:54:49;1.15;;;0.65;;
68523;SDS011;55524;51.380;13.372;2022-07-06T11:57:22;3.22;;;0.90;;
68523;SDS011;55524;51.380;13.372;2022-07-06T11:59:49;1.63;;;0.70;;
68523;SDS011;55524;51.380;13.372;2022-07-06T12:02:24;3.75;;;0.80;;
68523;SDS011;55524;51.380;13.372;2022-07-06T12:04:51;4.53;;;0.98;;
68523;SDS011;55524;51.380;13.372;2022-07-06T12:07:17;2.58;;;0.68;;
68523;SDS011;55524;51.380;13.372;2022-07-06T12:09:44;4.45;;;0.85;;
68523;SDS011;55524;51.380;13.372;2022-07-06T12:12:12;3.90;;;0.60;;
68523;SDS011;55524;51.380;13.372;2022-07-06T12:14:39;1.17;;;0.60;;
68523;SDS011;55524;51.380;13.372;2022-07-06T12:17:07;1.00;;;0.65;;
68523;SDS011;55524;51.380;13.372;2022-07-06T12:19:38;1.60;;;0.70;;
68523;SDS011;55524;51.380;13.372;2022-07-06T12:22:06;4.05;;;0.77;;
68523;SDS011;55524;51.380;13.372;2022-07-06T12:24:34;1.35;;;0.63;;
68523;SDS011;55524;51.380;13.372;2022-07-06T12:27:09;0.73;;;0.57;;
68523;SDS011;55524;51.380;13.372;2022-07-06T12:29:36;3.83;;;0.77;;
68523;SDS011;55524;51.380;13.372;2022-07-06T12:32:02;0.55;;;0.55;;
68523;SDS011;55524;51.380;13.372;2022-07-06T12:34:30;3.38;;;1.17;;
68523;SDS011;55524;51.380;13.372;2022-07-06T12:36:59;4.30;;;1.00;;
68523;SDS011;55524;51.380;13.372;2022-07-06T12:39:39;1.52;;;0.70;;
68523;SDS011;55524;51.380;13.372;2022-07-06T12:42:10;5.68;;;0.75;;
68523;SDS011;55524;51.380;13.372;2022-07-06T12:44:44;1.55;;;0.60;;
68523;SDS011;55524;51.380;13.372;2022-07-06T12:47:11;4.93;;;0.63;;
68523;SDS011;55524;51.380;13.372;2022-07-06T12:49:41;1.55;;;0.70;;
68523;SDS011;55524;51.380;13.372;2022-07-06T12:52:10;1.95;;;0.70;;
68523;SDS011;55524;51.380;13.372;2022-07-06T12:54:45;4.05;;;0.82;;
68523;SDS011;55524;51.380;13.372;2022-07-06T12:57:15;1.98;;;0.60;;
68523;SDS011;55524;51.380;13.372;2022-07-06T13:02:34;4.22;;;0.60;;
68523;SDS011;55524;51.380;13.372;2022-07-06T13:07:35;2.95;;;0.73;;
68523;SDS011;55524;51.380;13.372;2022-07-06T13:10:04;3.10;;;0.95;;
68523;SDS011;55524;51.380;13.372;2022-07-06T13:12:32;3.75;;;0.73;;
68523;SDS011;55524;51.380;13.372;2022-07-06T13:14:59;2.90;;;0.70;;
68523;SDS011;55524;51.380;13.372;2022-07-06T13:17:25;1.83;;;0.60;;
68523;SDS011;55524;51.380;13.372;2022-07-06T13:19:52;1.95;;;1.15;;
68523;SDS011;55524;51.380;13.372;2022-07-06T13:22:18;2.05;;;0.60;;
68523;SDS011;55524;51.380;13.372;2022-07-06T13:24:44;1.83;;;0.60;;
68523;SDS011;55524;51.380;13.372;2022-07-06T13:27:11;2.78;;;0.70;;
68523;SDS011;55524;51.380;13.372;2022-07-06T13:29:38;7.93;;;0.82;;
68523;SDS011;55524;51.380;13.372;2022-07-06T13:32:04;13.15;;;0.95;;
68523;SDS011;55524;51.380;13.372;2022-07-06T13:34:31;2.95;;;0.80;;
68523;SDS011;55524;51.380;13.372;2022-07-06T13:37:00;2.53;;;0.57;;
68523;SDS011;55524;51.380;13.372;2022-07-06T13:39:27;3.08;;;0.57;;
68523;SDS011;55524;51.380;13.372;2022-07-06T13:41:54;2.47;;;0.70;;
68523;SDS011;55524;51.380;13.372;2022-07-06T13:44:20;5.35;;;0.70;;
68523;SDS011;55524;51.380;13.372;2022-07-06T13:46:47;1.08;;;0.50;;
68523;SDS011;55524;51.380;13.372;2022-07-06T13:49:13;11.60;;;1.05;;
68523;SDS011;55524;51.380;13.372;2022-07-06T13:51:40;4.38;;;0.50;;
68523;SDS011;55524;51.380;13.372;2022-07-06T13:54:07;2.97;;;0.70;;
68523;SDS011;55524;51.380;13.372;2022-07-06T13:56:34;2.83;;;0.70;;
68523;SDS011;55524;51.380;13.372;2022-07-06T13:59:01;0.90;;;0.60;;
68523;SDS011;55524;51.380;13.372;2022-07-06T14:01:28;2.72;;;0.70;;
68523;SDS011;55524;51.380;13.372;2022-07-06T14:03:54;2.47;;;0.60;;
68523;SDS011;55524;51.380;13.372;2022-07-06T14:06:20;4.60;;;0.63;;
68523;SDS011;55524;51.380;13.372;2022-07-06T14:08:47;0.82;;;0.50;;
68523;SDS011;55524;51.380;13.372;2022-07-06T14:11:13;3.08;;;0.50;;
68523;SDS011;55524;51.380;13.372;2022-07-06T14:13:40;2.53;;;0.80;;
68523;SDS011;55524;51.380;13.372;2022-07-06T14:16:08;2.17;;;0.52;;
68523;SDS011;55524;51.380;13.372;2022-07-06T14:18:35;2.88;;;0.70;;
68523;SDS011;55524;51.380;13.372;2022-07-06T14:21:01;2.05;;;0.60;;
68523;SDS011;55524;51.380;13.372;2022-07-06T14:23:28;4.72;;;0.60;;
68523;SDS011;55524;51.380;13.372;2022-07-06T14:25:55;3.25;;;0.60;;
68523;SDS011;55524;51.380;13.372;2022-07-06T14:28:22;2.47;;;0.68;;
68523;SDS011;55524;51.380;13.372;2022-07-06T14:30:49;2.53;;;0.90;;
68523;SDS011;55524;51.380;13.372;2022-07-06T14:33:15;0.95;;;0.47;;
68523;SDS011;55524;51.380;13.372;2022-07-06T14:35:42;2.70;;;0.50;;
68523;SDS011;55524;51.380;13.372;2022-07-06T14:38:13;2.47;;;0.68;;
68523;SDS011;55524;51.380;13.372;2022-07-06T14:40:40;0.90;;;0.60;;
68523;SDS011;55524;51.380;13.372;2022-07-06T14:43:07;4.38;;;0.77;;
68523;SDS011;55524;51.380;13.372;2022-07-06T14:45:33;0.80;;;0.55;;
68523;SDS011;55524;51.380;13.372;2022-07-06T14:48:00;1.67;;;0.50;;
68523;SDS011;55524;51.380;13.372;2022-07-06T14:50:26;1.27;;;0.55;;
68523;SDS011;55524;51.380;13.372;2022-07-06T14:52:53;4.78;;;0.50;;
68523;SDS011;55524;51.380;13.372;2022-07-06T14:55:20;1.90;;;0.50;;
68523;SDS011;55524;51.380;13.372;2022-07-06T14:57:46;4.88;;;0.90;;
68523;SDS011;55524;51.380;13.372;2022-07-06T15:00:13;1.83;;;0.65;;
68523;SDS011;55524;51.380;13.372;2022-07-06T15:02:41;3.75;;;0.70;;
68523;SDS011;55524;51.380;13.372;2022-07-06T15:05:08;2.58;;;0.70;;
68523;SDS011;55524;51.380;13.372;2022-07-06T15:07:35;0.68;;;0.50;;
68523;SDS011;55524;51.380;13.372;2022-07-06T15:10:02;1.50;;;0.60;;
68523;SDS011;55524;51.380;13.372;2022-07-06T15:12:29;6.80;;;0.98;;
68523;SDS011;55524;51.380;13.372;2022-07-06T15:14:55;1.30;;;0.60;;
68523;SDS011;55524;51.380;13.372;2022-07-06T15:17:21;1.60;;;0.80;;
68523;SDS011;55524;51.380;13.372;2022-07-06T15:19:48;6.18;;;0.70;;
68523;SDS011;55524;51.380;13.372;2022-07-06T15:22:14;1.13;;;0.60;;